Mykonos Seas — D5DD7 — position and weather

sailwx.info

Track history (hours):
 
Tides and Currents Weather Stations Pressure Air Temp Water Temp Dewpoint Dewpoint Depression Visibility Wind Speed Wind Dir Waves Ship Positions

Mykonos Seas

Last reported at 2018-May-23 01:13 UTC. Time now 2018-May-26 03:48 UTC.
Position N 28°12' W 016°10'.

Length 190 m; draft 11.8 m.

Type: Cargo ship. MMSI: 636015849.

Date/timePositionNaut miles runAvg speedWind from/ knotsBaromVisibWave heightAir tempDewpointWater temp
2018-May-23 01:13N 28°12' W 016°10'314.5
2018-May-23 01:00N 28°15' W 016°08'714.3
2018-May-23 00:30N 28°20' W 016°02'814.2
2018-May-22 23:56N 28°26' W 015°56'614.0
2018-May-22 23:30N 28°31' W 015°52'2113.7
2018-May-22 22:00N 28°47' W 015°38'  
2018-May-19 17:40N 44°54' W 009°29'14413.2
2018-May-19 06:44N 46°58' W 007°43'313.3
2018-May-19 06:30N 47°01' W 007°41'713.4
2018-May-19 06:00N 47°06' W 007°36'813.1
2018-May-19 05:26N 47°13' W 007°30'613.2
2018-May-19 05:00N 47°18' W 007°26'612.9
2018-May-19 04:30N 47°23' W 007°21'613.0
2018-May-19 04:00N 47°29' W 007°17'612.7
2018-May-19 03:30N 47°35' W 007°12'1212.5
2018-May-19 02:33N 47°45' W 007°03'1212.9
2018-May-19 01:36N 47°55' W 006°54'413.2
2018-May-19 01:16N 47°59' W 006°50'1713.9
2018-May-19 00:01N 48°14' W 006°37'214.6
2018-May-18 23:53N 48°16' W 006°35'614.5
2018-May-18 23:31N 48°20' W 006°31'714.6
2018-May-18 23:01N 48°27' W 006°25'714.5
2018-May-18 22:30N 48°33' W 006°20'714.2
2018-May-18 22:00N 48°39' W 006°14'714.0
2018-May-18 21:30N 48°45' W 006°09'713.7
2018-May-18 21:00N 48°51' W 006°03'713.4
2018-May-18 20:30N 48°57' W 005°58'713.0
2018-May-18 20:00N 49°03' W 005°54'612.6
2018-May-18 19:30N 49°09' W 005°51'611.5
2018-May-18 19:00N 49°14' W 005°48'2 3.6
2018-May-18 18:27N 49°16' W 005°48'1 0.9
2018-May-18 17:51N 49°16' W 005°48'0 0.9
2018-May-18 17:21N 49°15' W 005°49'0 0.9
2018-May-18 17:00N 49°15' W 005°49'0 0.8
2018-May-18 16:29N 49°15' W 005°49'0 0.8
2018-May-18 16:00N 49°14' W 005°49'0 0.8
2018-May-18 15:30N 49°14' W 005°49'1 1.8
2018-May-18 15:00N 49°13' W 005°48'510.1
2018-May-18 14:30N 49°11' W 005°41'713.4
2018-May-18 14:00N 49°08' W 005°32'813.7
2018-May-18 13:27N 49°06' W 005°21'613.4
2018-May-18 12:59N 49°08' W 005°12'5 9.8
2018-May-18 12:30N 49°10' W 005°05'1 1.9
2018-May-18 11:54N 49°11' W 005°04'2 5.1
2018-May-18 11:30N 49°11' W 005°01'1214.5
2018-May-18 10:41N 49°17' W 004°45'214.2
2018-May-18 10:30N 49°19' W 004°42'1113.6
2018-May-18 09:41N 49°24' W 004°27'313.0
2018-May-18 09:26N 49°26' W 004°22'612.8
2018-May-18 08:57N 49°29' W 004°14'512.2
2018-May-18 08:30N 49°31' W 004°07'711.9
2018-May-18 07:57N 49°34' W 003°58'611.5
2018-May-18 07:28N 49°37' W 003°50'711.5
2018-May-18 06:49N 49°41' W 003°40'411.7
2018-May-18 06:27N 49°43' W 003°35'812.1
2018-May-18 05:45N 49°47' W 003°23'312.8
2018-May-18 05:30N 49°49' W 003°19'1213.6
2018-May-18 04:39N 49°55' W 003°03'214.6
2018-May-18 04:30N 49°56' W 002°60'1915.7
2018-May-18 03:15N 50°01' W 002°31'416.6
2018-May-18 02:59N 50°03' W 002°25'916.9
2018-May-18 02:27N 50°05' W 002°11'716.7
2018-May-18 02:00N 50°07' W 001°60'815.7
2018-May-18 01:30N 50°09' W 001°48'714.6
2018-May-18 01:00N 50°11' W 001°37'713.6
2018-May-18 00:30N 50°13' W 001°27'812.3
2018-May-17 23:51N 50°15' W 001°14'810.8
2018-May-17 23:09N 50°17' W 001°03'210.3
2018-May-17 22:59N 50°17' W 001°01'2910.0
2018-May-17 20:08N 50°25' W 000°17'211.9
2018-May-17 20:00N 50°25' W 000°15'612.5
2018-May-17 19:30N 50°27' W 000°05'713.4
2018-May-17 18:59N 50°29' E 000°05'814.1
2018-May-17 18:28N 50°31' E 000°16'1314.7
2018-May-17 17:36N 50°34' E 000°35'214.7
2018-May-17 17:29N 50°35' E 000°38'814.5
2018-May-17 16:58N 50°40' E 000°47'814.0
2018-May-17 16:25N 50°44' E 000°57'613.4
2018-May-17 15:56N 50°48' E 001°04'2111.6
2018-May-17 14:09N 51°02' E 001°29'110.1
2018-May-17 14:01N 51°03' E 001°31'5 9.6
2018-May-17 13:30N 51°07' E 001°36'5 9.9
2018-May-17 13:00N 51°10' E 001°42'510.9
2018-May-17 12:30N 51°15' E 001°47'612.0
2018-May-17 12:00N 51°20' E 001°51'813.2
2018-May-17 11:25N 51°27' E 001°58'614.1
2018-May-17 11:00N 51°31' E 002°04'814.7
2018-May-17 10:29N 51°37' E 002°12'714.8
2018-May-17 10:00N 51°42' E 002°20'2914.4
2018-May-17 07:57N 52°08' E 002°41'1013.4
2018-May-17 07:10N 52°18' E 002°48'712.7
2018-May-17 06:38N 52°24' E 002°52'212.2
2018-May-17 06:26N 52°26' E 002°54'612.0
2018-May-17 05:56N 52°32' E 002°58'1611.2
2018-May-17 04:28N 52°47' E 003°09'9211.4
2018-May-16 20:24N 54°07' E 004°26'511.8
2018-May-16 20:00N 54°11' E 004°30'19512.7
2018-May-16 04:39N 57°02' E 007°15'7812.4
2018-May-15 22:18N 57°39' E 009°23'412.4
2018-May-15 22:00N 57°40' E 009°30'612.7
2018-May-15 21:30N 57°43' E 009°40'612.8
2018-May-15 21:00N 57°46' E 009°51'612.4
2018-May-15 20:30N 57°47' E 010°02'612.4
2018-May-15 20:00N 57°48' E 010°14'612.5
2018-May-15 19:30N 57°47' E 010°26'612.6
2018-May-15 19:00N 57°47' E 010°37'5 9.8
2018-May-15 18:30N 57°45' E 010°46'510.0
2018-May-15 18:00N 57°40' E 010°47'2 3.2
2018-May-15 17:30N 57°39' E 010°46'2 4.3
2018-May-15 17:00N 57°37' E 010°46'510.7
2018-May-15 16:30N 57°34' E 010°55'612.8
2018-May-15 16:00N 57°32' E 011°06'612.7
2018-May-15 15:30N 57°31' E 011°18'611.8
2018-May-15 15:00N 57°27' E 011°27'612.4
2018-May-15 14:30N 57°22' E 011°31'612.6
2018-May-15 14:00N 57°16' E 011°35'612.7
2018-May-15 13:30N 57°09' E 011°39'612.6
2018-May-15 13:00N 57°04' E 011°42'612.5
2018-May-15 12:30N 56°58' E 011°46'612.5
2018-May-15 12:00N 56°52' E 011°50'612.4
2018-May-15 11:30N 56°46' E 011°53'612.3
2018-May-15 10:58N 56°40' E 011°49'812.2
2018-May-15 10:17N 56°32' E 011°41'6811.7
2018-May-15 04:29N 55°30' E 010°53'612.7
2018-May-15 04:00N 55°25' E 010°60'612.3
2018-May-15 03:30N 55°19' E 011°02'612.4
2018-May-15 03:00N 55°13' E 011°06'611.4
2018-May-15 02:30N 55°09' E 010°60'612.7
2018-May-15 02:00N 55°03' E 010°60'611.4
2018-May-15 01:30N 54°57' E 010°56'611.7
2018-May-15 01:00N 54°52' E 010°50'612.7
2018-May-15 00:30N 54°46' E 010°48'611.5
2018-May-15 00:00N 54°40' E 010°49'612.9
2018-May-14 23:30N 54°37' E 010°59'713.1
2018-May-14 23:00N 54°36' E 011°10'713.4
2018-May-14 22:30N 54°34' E 011°21'713.2
2018-May-14 22:00N 54°31' E 011°31'612.9
2018-May-14 21:30N 54°28' E 011°41'713.0
2018-May-14 21:00N 54°27' E 011°52'612.8
2018-May-14 20:30N 54°27' E 012°03'611.2
2018-May-14 20:00N 54°29' E 012°12'612.6
2018-May-14 19:30N 54°35' E 012°16'2310.9
2018-May-14 17:22N 54°49' E 012°48'611.7
2018-May-14 16:50N 54°50' E 012°58'1112.7
2018-May-14 15:57N 54°54' E 013°16'1013.0
2018-May-14 15:10N 54°57' E 013°33'413.3
2018-May-14 14:52N 54°59' E 013°39'512.9
2018-May-14 14:29N 55°01' E 013°48'612.8
2018-May-14 14:00N 55°03' E 013°58'712.3
2018-May-14 13:28N 55°07' E 014°07'612.7
2018-May-14 13:00N 55°11' E 014°14'612.7
2018-May-14 12:30N 55°16' E 014°20'712.9
2018-May-14 12:00N 55°21' E 014°28'613.0
2018-May-14 11:30N 55°26' E 014°35'612.9
2018-May-14 11:00N 55°29' E 014°45'612.9
2018-May-14 10:30N 55°32' E 014°55'613.0
2018-May-14 10:00N 55°35' E 015°05'613.0
2018-May-14 09:30N 55°38' E 015°16'612.8
2018-May-14 09:00N 55°40' E 015°26'612.9
2018-May-14 08:30N 55°41' E 015°38'713.1
2018-May-14 08:00N 55°43' E 015°49'713.3
2018-May-14 07:30N 55°44' E 016°00'713.1
2018-May-14 07:00N 55°46' E 016°12'612.9
2018-May-14 06:30N 55°48' E 016°23'1213.0
2018-May-14 05:34N 55°51' E 016°44'113.0
2018-May-14 05:30N 55°51' E 016°45'713.0
2018-May-14 05:00N 55°52' E 016°56'713.1
2018-May-14 04:30N 55°54' E 017°08'713.1
2018-May-14 04:00N 55°56' E 017°19'612.8
2018-May-14 03:30N 55°57' E 017°30'613.0
2018-May-14 03:00N 55°59' E 017°41'713.2
2018-May-14 02:30N 56°03' E 017°51'1113.1
2018-May-14 01:41N 56°09' E 018°08'212.8
2018-May-14 01:30N 56°10' E 018°11'21113.0
2018-May-13 09:20N 59°09' E 021°37'413.1
2018-May-13 09:00N 59°12' E 021°44'713.1
2018-May-13 08:30N 59°16' E 021°54'4413.0
2018-May-13 05:05N 59°36' E 023°12'113.4
2018-May-13 05:00N 59°36' E 023°14'713.3
2018-May-13 04:30N 59°38' E 023°26'713.2
2018-May-13 04:00N 59°40' E 023°39'913.3
2018-May-13 03:19N 59°43' E 023°56'413.4
2018-May-13 03:00N 59°44' E 024°04'713.2
2018-May-13 02:29N 59°46' E 024°17'613.4
2018-May-13 02:00N 59°49' E 024°29'713.0
2018-May-13 01:30N 59°50' E 024°42'  
Track history (hours):
 
Tides and Currents Weather Stations Pressure Air Temp Water Temp Dewpoint Dewpoint Depression Visibility Wind Speed Wind Dir Waves Ship Positions

Mykonos Seas

Last reported at 2018-May-23 01:13 UTC. Time now 2018-May-26 03:48 UTC.
Position N 28°12' W 016°10'.

Length 190 m; draft 11.8 m.

Type: Cargo ship. MMSI: 636015849.

Date/timePositionNaut miles runAvg speedWind from/ knotsBaromVisibWave heightAir tempDewpointWater temp
2018-May-23 01:13N 28°12' W 016°10'314.5
2018-May-23 01:00N 28°15' W 016°08'714.3
2018-May-23 00:30N 28°20' W 016°02'814.2
2018-May-22 23:56N 28°26' W 015°56'614.0
2018-May-22 23:30N 28°31' W 015°52'2113.7
2018-May-22 22:00N 28°47' W 015°38'  
2018-May-19 17:40N 44°54' W 009°29'14413.2
2018-May-19 06:44N 46°58' W 007°43'313.3
2018-May-19 06:30N 47°01' W 007°41'713.4
2018-May-19 06:00N 47°06' W 007°36'813.1
2018-May-19 05:26N 47°13' W 007°30'613.2
2018-May-19 05:00N 47°18' W 007°26'612.9
2018-May-19 04:30N 47°23' W 007°21'613.0
2018-May-19 04:00N 47°29' W 007°17'612.7
2018-May-19 03:30N 47°35' W 007°12'1212.5
2018-May-19 02:33N 47°45' W 007°03'1212.9
2018-May-19 01:36N 47°55' W 006°54'413.2
2018-May-19 01:16N 47°59' W 006°50'1713.9
2018-May-19 00:01N 48°14' W 006°37'214.6
2018-May-18 23:53N 48°16' W 006°35'614.5
2018-May-18 23:31N 48°20' W 006°31'714.6
2018-May-18 23:01N 48°27' W 006°25'714.5
2018-May-18 22:30N 48°33' W 006°20'714.2
2018-May-18 22:00N 48°39' W 006°14'714.0
2018-May-18 21:30N 48°45' W 006°09'713.7
2018-May-18 21:00N 48°51' W 006°03'713.4
2018-May-18 20:30N 48°57' W 005°58'713.0
2018-May-18 20:00N 49°03' W 005°54'612.6
2018-May-18 19:30N 49°09' W 005°51'611.5
2018-May-18 19:00N 49°14' W 005°48'2 3.6
2018-May-18 18:27N 49°16' W 005°48'1 0.9
2018-May-18 17:51N 49°16' W 005°48'0 0.9
2018-May-18 17:21N 49°15' W 005°49'0 0.9
2018-May-18 17:00N 49°15' W 005°49'0 0.8
2018-May-18 16:29N 49°15' W 005°49'0 0.8
2018-May-18 16:00N 49°14' W 005°49'0 0.8
2018-May-18 15:30N 49°14' W 005°49'1 1.8
2018-May-18 15:00N 49°13' W 005°48'510.1
2018-May-18 14:30N 49°11' W 005°41'713.4
2018-May-18 14:00N 49°08' W 005°32'813.7
2018-May-18 13:27N 49°06' W 005°21'613.4
2018-May-18 12:59N 49°08' W 005°12'5 9.8
2018-May-18 12:30N 49°10' W 005°05'1 1.9
2018-May-18 11:54N 49°11' W 005°04'2 5.1
2018-May-18 11:30N 49°11' W 005°01'1214.5
2018-May-18 10:41N 49°17' W 004°45'214.2
2018-May-18 10:30N 49°19' W 004°42'1113.6
2018-May-18 09:41N 49°24' W 004°27'313.0
2018-May-18 09:26N 49°26' W 004°22'612.8
2018-May-18 08:57N 49°29' W 004°14'512.2
2018-May-18 08:30N 49°31' W 004°07'711.9
2018-May-18 07:57N 49°34' W 003°58'611.5
2018-May-18 07:28N 49°37' W 003°50'711.5
2018-May-18 06:49N 49°41' W 003°40'411.7
2018-May-18 06:27N 49°43' W 003°35'812.1
2018-May-18 05:45N 49°47' W 003°23'312.8
2018-May-18 05:30N 49°49' W 003°19'1213.6
2018-May-18 04:39N 49°55' W 003°03'214.6
2018-May-18 04:30N 49°56' W 002°60'1915.7
2018-May-18 03:15N 50°01' W 002°31'416.6
2018-May-18 02:59N 50°03' W 002°25'916.9
2018-May-18 02:27N 50°05' W 002°11'716.7
2018-May-18 02:00N 50°07' W 001°60'815.7
2018-May-18 01:30N 50°09' W 001°48'714.6
2018-May-18 01:00N 50°11' W 001°37'713.6
2018-May-18 00:30N 50°13' W 001°27'812.3
2018-May-17 23:51N 50°15' W 001°14'810.8
2018-May-17 23:09N 50°17' W 001°03'210.3
2018-May-17 22:59N 50°17' W 001°01'2910.0
2018-May-17 20:08N 50°25' W 000°17'211.9
2018-May-17 20:00N 50°25' W 000°15'612.5
2018-May-17 19:30N 50°27' W 000°05'713.4
2018-May-17 18:59N 50°29' E 000°05'814.1
2018-May-17 18:28N 50°31' E 000°16'1314.7
2018-May-17 17:36N 50°34' E 000°35'214.7
2018-May-17 17:29N 50°35' E 000°38'814.5
2018-May-17 16:58N 50°40' E 000°47'814.0
2018-May-17 16:25N 50°44' E 000°57'613.4
2018-May-17 15:56N 50°48' E 001°04'2111.6
2018-May-17 14:09N 51°02' E 001°29'110.1
2018-May-17 14:01N 51°03' E 001°31'5 9.6
2018-May-17 13:30N 51°07' E 001°36'5 9.9
2018-May-17 13:00N 51°10' E 001°42'510.9
2018-May-17 12:30N 51°15' E 001°47'612.0
2018-May-17 12:00N 51°20' E 001°51'813.2
2018-May-17 11:25N 51°27' E 001°58'614.1
2018-May-17 11:00N 51°31' E 002°04'814.7
2018-May-17 10:29N 51°37' E 002°12'714.8
2018-May-17 10:00N 51°42' E 002°20'2914.4
2018-May-17 07:57N 52°08' E 002°41'1013.4
2018-May-17 07:10N 52°18' E 002°48'712.7
2018-May-17 06:38N 52°24' E 002°52'212.2
2018-May-17 06:26N 52°26' E 002°54'612.0
2018-May-17 05:56N 52°32' E 002°58'1611.2
2018-May-17 04:28N 52°47' E 003°09'9211.4
2018-May-16 20:24N 54°07' E 004°26'511.8
2018-May-16 20:00N 54°11' E 004°30'19512.7
2018-May-16 04:39N 57°02' E 007°15'7812.4
2018-May-15 22:18N 57°39' E 009°23'412.4
2018-May-15 22:00N 57°40' E 009°30'612.7
2018-May-15 21:30N 57°43' E 009°40'612.8
2018-May-15 21:00N 57°46' E 009°51'612.4
2018-May-15 20:30N 57°47' E 010°02'612.4
2018-May-15 20:00N 57°48' E 010°14'612.5
2018-May-15 19:30N 57°47' E 010°26'612.6
2018-May-15 19:00N 57°47' E 010°37'5 9.8
2018-May-15 18:30N 57°45' E 010°46'510.0
2018-May-15 18:00N 57°40' E 010°47'2 3.2
2018-May-15 17:30N 57°39' E 010°46'2 4.3
2018-May-15 17:00N 57°37' E 010°46'510.7
2018-May-15 16:30N 57°34' E 010°55'612.8
2018-May-15 16:00N 57°32' E 011°06'612.7
2018-May-15 15:30N 57°31' E 011°18'611.8
2018-May-15 15:00N 57°27' E 011°27'612.4
2018-May-15 14:30N 57°22' E 011°31'612.6
2018-May-15 14:00N 57°16' E 011°35'612.7
2018-May-15 13:30N 57°09' E 011°39'612.6
2018-May-15 13:00N 57°04' E 011°42'612.5
2018-May-15 12:30N 56°58' E 011°46'612.5
2018-May-15 12:00N 56°52' E 011°50'612.4
2018-May-15 11:30N 56°46' E 011°53'612.3
2018-May-15 10:58N 56°40' E 011°49'812.2
2018-May-15 10:17N 56°32' E 011°41'6811.7
2018-May-15 04:29N 55°30' E 010°53'612.7
2018-May-15 04:00N 55°25' E 010°60'612.3
2018-May-15 03:30N 55°19' E 011°02'612.4
2018-May-15 03:00N 55°13' E 011°06'611.4
2018-May-15 02:30N 55°09' E 010°60'612.7
2018-May-15 02:00N 55°03' E 010°60'611.4
2018-May-15 01:30N 54°57' E 010°56'611.7
2018-May-15 01:00N 54°52' E 010°50'612.7
2018-May-15 00:30N 54°46' E 010°48'611.5
2018-May-15 00:00N 54°40' E 010°49'612.9
2018-May-14 23:30N 54°37' E 010°59'713.1
2018-May-14 23:00N 54°36' E 011°10'713.4
2018-May-14 22:30N 54°34' E 011°21'713.2
2018-May-14 22:00N 54°31' E 011°31'612.9
2018-May-14 21:30N 54°28' E 011°41'713.0
2018-May-14 21:00N 54°27' E 011°52'612.8
2018-May-14 20:30N 54°27' E 012°03'611.2
2018-May-14 20:00N 54°29' E 012°12'612.6
2018-May-14 19:30N 54°35' E 012°16'2310.9
2018-May-14 17:22N 54°49' E 012°48'611.7
2018-May-14 16:50N 54°50' E 012°58'1112.7
2018-May-14 15:57N 54°54' E 013°16'1013.0
2018-May-14 15:10N 54°57' E 013°33'413.3
2018-May-14 14:52N 54°59' E 013°39'512.9
2018-May-14 14:29N 55°01' E 013°48'612.8
2018-May-14 14:00N 55°03' E 013°58'712.3
2018-May-14 13:28N 55°07' E 014°07'612.7
2018-May-14 13:00N 55°11' E 014°14'612.7
2018-May-14 12:30N 55°16' E 014°20'712.9
2018-May-14 12:00N 55°21' E 014°28'613.0
2018-May-14 11:30N 55°26' E 014°35'612.9
2018-May-14 11:00N 55°29' E 014°45'612.9
2018-May-14 10:30N 55°32' E 014°55'613.0
2018-May-14 10:00N 55°35' E 015°05'613.0
2018-May-14 09:30N 55°38' E 015°16'612.8
2018-May-14 09:00N 55°40' E 015°26'612.9
2018-May-14 08:30N 55°41' E 015°38'713.1
2018-May-14 08:00N 55°43' E 015°49'713.3
2018-May-14 07:30N 55°44' E 016°00'713.1
2018-May-14 07:00N 55°46' E 016°12'612.9
2018-May-14 06:30N 55°48' E 016°23'1213.0
2018-May-14 05:34N 55°51' E 016°44'113.0
2018-May-14 05:30N 55°51' E 016°45'713.0
2018-May-14 05:00N 55°52' E 016°56'713.1
2018-May-14 04:30N 55°54' E 017°08'713.1
2018-May-14 04:00N 55°56' E 017°19'612.8
2018-May-14 03:30N 55°57' E 017°30'613.0
2018-May-14 03:00N 55°59' E 017°41'713.2
2018-May-14 02:30N 56°03' E 017°51'1113.1
2018-May-14 01:41N 56°09' E 018°08'212.8
2018-May-14 01:30N 56°10' E 018°11'21113.0
2018-May-13 09:20N 59°09' E 021°37'413.1
2018-May-13 09:00N 59°12' E 021°44'713.1
2018-May-13 08:30N 59°16' E 021°54'4413.0
2018-May-13 05:05N 59°36' E 023°12'113.4
2018-May-13 05:00N 59°36' E 023°14'713.3
2018-May-13 04:30N 59°38' E 023°26'713.2
2018-May-13 04:00N 59°40' E 023°39'913.3
2018-May-13 03:19N 59°43' E 023°56'413.4
2018-May-13 03:00N 59°44' E 024°04'713.2
2018-May-13 02:29N 59°46' E 024°17'613.4
2018-May-13 02:00N 59°49' E 024°29'713.0
2018-May-13 01:30N 59°50' E 024°42'  

Dump ship's entire track history